sensor_id;sensor_type;location;lat;lon;timestamp;temperature;humidity
26655;DHT22;14278;50.784;4.630;2023-12-07T00:00:30;4.80;99.90
26655;DHT22;14278;50.784;4.630;2023-12-07T00:02:56;4.90;99.90
26655;DHT22;14278;50.784;4.630;2023-12-07T00:05:22;4.70;99.90
26655;DHT22;14278;50.784;4.630;2023-12-07T00:15:28;4.50;99.90
26655;DHT22;14278;50.784;4.630;2023-12-07T00:17:54;4.50;99.90
26655;DHT22;14278;50.784;4.630;2023-12-07T00:20:19;4.70;99.90
26655;DHT22;14278;50.784;4.630;2023-12-07T00:22:45;4.80;99.90
26655;DHT22;14278;50.784;4.630;2023-12-07T00:25:12;4.90;99.90
26655;DHT22;14278;50.784;4.630;2023-12-07T00:27:38;4.80;99.90
26655;DHT22;14278;50.784;4.630;2023-12-07T00:32:35;4.60;99.90
26655;DHT22;14278;50.784;4.630;2023-12-07T00:35:33;4.70;99.90
26655;DHT22;14278;50.784;4.630;2023-12-07T00:37:59;4.90;99.90
26655;DHT22;14278;50.784;4.630;2023-12-07T00:40:24;5.00;99.90
26655;DHT22;14278;50.784;4.630;2023-12-07T00:42:50;4.90;99.90
26655;DHT22;14278;50.784;4.630;2023-12-07T00:45:16;5.00;99.90
26655;DHT22;14278;50.784;4.630;2023-12-07T00:47:41;5.20;99.90
26655;DHT22;14278;50.784;4.630;2023-12-07T00:53:04;5.30;99.90
26655;DHT22;14278;50.784;4.630;2023-12-07T00:57:58;5.00;99.90
26655;DHT22;14278;50.784;4.630;2023-12-07T01:00:25;5.00;99.90
26655;DHT22;14278;50.784;4.630;2023-12-07T01:02:51;4.90;99.90
26655;DHT22;14278;50.784;4.630;2023-12-07T01:05:20;4.80;99.90
26655;DHT22;14278;50.784;4.630;2023-12-07T01:07:52;5.10;99.90
26655;DHT22;14278;50.784;4.630;2023-12-07T01:10:17;5.00;99.90
26655;DHT22;14278;50.784;4.630;2023-12-07T01:12:43;5.20;99.90
26655;DHT22;14278;50.784;4.630;2023-12-07T01:15:09;5.10;99.90
26655;DHT22;14278;50.784;4.630;2023-12-07T01:17:34;5.30;99.90
26655;DHT22;14278;50.784;4.630;2023-12-07T01:20:00;5.30;99.90
26655;DHT22;14278;50.784;4.630;2023-12-07T01:22:26;5.60;99.90
26655;DHT22;14278;50.784;4.630;2023-12-07T01:24:51;5.10;99.90
26655;DHT22;14278;50.784;4.630;2023-12-07T01:27:17;5.10;99.90
26655;DHT22;14278;50.784;4.630;2023-12-07T01:29:43;5.10;99.90
26655;DHT22;14278;50.784;4.630;2023-12-07T01:32:09;5.20;99.90
26655;DHT22;14278;50.784;4.630;2023-12-07T01:42:20;5.50;99.90
26655;DHT22;14278;50.784;4.630;2023-12-07T01:44:49;5.60;99.90
26655;DHT22;14278;50.784;4.630;2023-12-07T01:47:19;5.20;99.90
26655;DHT22;14278;50.784;4.630;2023-12-07T01:49:46;5.20;99.90
26655;DHT22;14278;50.784;4.630;2023-12-07T01:52:12;5.20;99.90
26655;DHT22;14278;50.784;4.630;2023-12-07T01:59:44;5.10;99.90
26655;DHT22;14278;50.784;4.630;2023-12-07T02:02:10;5.10;99.90
26655;DHT22;14278;50.784;4.630;2023-12-07T02:04:36;4.70;99.90
26655;DHT22;14278;50.784;4.630;2023-12-07T02:07:01;4.60;99.90
26655;DHT22;14278;50.784;4.630;2023-12-07T02:09:28;4.70;99.90
26655;DHT22;14278;50.784;4.630;2023-12-07T02:11:53;4.70;99.90
26655;DHT22;14278;50.784;4.630;2023-12-07T02:14:19;4.50;99.90
26655;DHT22;14278;50.784;4.630;2023-12-07T02:16:56;4.60;99.90
26655;DHT22;14278;50.784;4.630;2023-12-07T02:22:42;4.70;99.90
26655;DHT22;14278;50.784;4.630;2023-12-07T02:25:10;4.90;99.90
26655;DHT22;14278;50.784;4.630;2023-12-07T02:27:38;4.90;99.90
26655;DHT22;14278;50.784;4.630;2023-12-07T02:30:07;5.10;99.90
26655;DHT22;14278;50.784;4.630;2023-12-07T02:32:39;5.10;99.90
26655;DHT22;14278;50.784;4.630;2023-12-07T02:35:31;5.20;99.90
26655;DHT22;14278;50.784;4.630;2023-12-07T02:37:58;5.00;99.90
26655;DHT22;14278;50.784;4.630;2023-12-07T02:40:31;5.10;99.90
26655;DHT22;14278;50.784;4.630;2023-12-07T02:42:59;5.00;99.90
26655;DHT22;14278;50.784;4.630;2023-12-07T02:45:25;5.20;99.90
26655;DHT22;14278;50.784;4.630;2023-12-07T02:47:52;5.20;99.90
26655;DHT22;14278;50.784;4.630;2023-12-07T02:50:18;5.30;99.90
26655;DHT22;14278;50.784;4.630;2023-12-07T02:52:43;5.30;99.90
26655;DHT22;14278;50.784;4.630;2023-12-07T02:55:09;5.40;99.90
26655;DHT22;14278;50.784;4.630;2023-12-07T02:57:35;5.40;99.90
26655;DHT22;14278;50.784;4.630;2023-12-07T03:00:02;5.20;99.90
26655;DHT22;14278;50.784;4.630;2023-12-07T03:02:36;5.20;99.90
26655;DHT22;14278;50.784;4.630;2023-12-07T03:05:02;5.50;99.90
26655;DHT22;14278;50.784;4.630;2023-12-07T03:07:28;5.40;99.90
26655;DHT22;14278;50.784;4.630;2023-12-07T03:09:54;5.80;99.90
26655;DHT22;14278;50.784;4.630;2023-12-07T03:12:19;5.40;99.90
26655;DHT22;14278;50.784;4.630;2023-12-07T03:14:45;5.60;99.90
26655;DHT22;14278;50.784;4.630;2023-12-07T03:17:11;5.60;99.90
26655;DHT22;14278;50.784;4.630;2023-12-07T03:19:40;5.40;99.90
26655;DHT22;14278;50.784;4.630;2023-12-07T03:22:06;5.50;99.90
26655;DHT22;14278;50.784;4.630;2023-12-07T03:24:33;5.40;99.90
26655;DHT22;14278;50.784;4.630;2023-12-07T03:26:59;5.30;99.90
26655;DHT22;14278;50.784;4.630;2023-12-07T03:32:00;5.30;99.90
26655;DHT22;14278;50.784;4.630;2023-12-07T03:37:01;5.10;99.90
26655;DHT22;14278;50.784;4.630;2023-12-07T03:42:05;5.00;99.90
26655;DHT22;14278;50.784;4.630;2023-12-07T03:44:31;4.90;99.90
26655;DHT22;14278;50.784;4.630;2023-12-07T03:46:56;4.90;99.90
26655;DHT22;14278;50.784;4.630;2023-12-07T03:49:22;4.90;99.90
26655;DHT22;14278;50.784;4.630;2023-12-07T03:56:58;5.00;99.90
26655;DHT22;14278;50.784;4.630;2023-12-07T03:59:24;5.30;99.90
26655;DHT22;14278;50.784;4.630;2023-12-07T04:01:50;5.00;99.90
26655;DHT22;14278;50.784;4.630;2023-12-07T04:04:15;5.10;99.90
26655;DHT22;14278;50.784;4.630;2023-12-07T04:06:41;5.10;99.90
26655;DHT22;14278;50.784;4.630;2023-12-07T04:09:07;5.20;99.90
26655;DHT22;14278;50.784;4.630;2023-12-07T04:14:08;5.30;99.90
26655;DHT22;14278;50.784;4.630;2023-12-07T04:21:40;5.10;99.90
26655;DHT22;14278;50.784;4.630;2023-12-07T04:29:12;5.20;99.90
26655;DHT22;14278;50.784;4.630;2023-12-07T04:31:38;5.00;99.90
26655;DHT22;14278;50.784;4.630;2023-12-07T04:34:03;5.00;99.90
26655;DHT22;14278;50.784;4.630;2023-12-07T04:39:04;5.20;99.90
26655;DHT22;14278;50.784;4.630;2023-12-07T04:43:58;5.00;99.90
26655;DHT22;14278;50.784;4.630;2023-12-07T04:49:02;4.90;99.90
26655;DHT22;14278;50.784;4.630;2023-12-07T04:51:28;4.90;99.90
26655;DHT22;14278;50.784;4.630;2023-12-07T04:53:53;5.00;99.90
26655;DHT22;14278;50.784;4.630;2023-12-07T04:56:19;4.90;99.90
26655;DHT22;14278;50.784;4.630;2023-12-07T05:01:20;5.10;99.90
26655;DHT22;14278;50.784;4.630;2023-12-07T05:03:46;4.90;99.90
26655;DHT22;14278;50.784;4.630;2023-12-07T05:08:44;5.00;99.90
26655;DHT22;14278;50.784;4.630;2023-12-07T05:11:09;5.10;99.90
26655;DHT22;14278;50.784;4.630;2023-12-07T05:16:10;5.10;99.90
26655;DHT22;14278;50.784;4.630;2023-12-07T05:21:12;5.00;99.90
26655;DHT22;14278;50.784;4.630;2023-12-07T05:23:37;5.00;99.90
26655;DHT22;14278;50.784;4.630;2023-12-07T05:28:37;5.20;99.90
26655;DHT22;14278;50.784;4.630;2023-12-07T05:31:03;5.20;99.90
26655;DHT22;14278;50.784;4.630;2023-12-07T05:33:29;5.10;99.90
26655;DHT22;14278;50.784;4.630;2023-12-07T05:35:55;5.00;99.90
26655;DHT22;14278;50.784;4.630;2023-12-07T05:38:20;4.90;99.90
26655;DHT22;14278;50.784;4.630;2023-12-07T05:40:46;5.20;99.90
26655;DHT22;14278;50.784;4.630;2023-12-07T05:45:44;4.80;99.90
26655;DHT22;14278;50.784;4.630;2023-12-07T05:53:21;4.90;99.90
26655;DHT22;14278;50.784;4.630;2023-12-07T06:00:58;5.00;99.90
26655;DHT22;14278;50.784;4.630;2023-12-07T06:03:23;4.90;99.90
26655;DHT22;14278;50.784;4.630;2023-12-07T06:05:51;5.10;99.90
26655;DHT22;14278;50.784;4.630;2023-12-07T06:08:19;5.00;99.90
26655;DHT22;14278;50.784;4.630;2023-12-07T06:13:20;5.00;99.90
26655;DHT22;14278;50.784;4.630;2023-12-07T06:15:46;4.70;99.90
26655;DHT22;14278;50.784;4.630;2023-12-07T06:18:12;4.70;99.90
26655;DHT22;14278;50.784;4.630;2023-12-07T06:23:13;4.30;99.90
26655;DHT22;14278;50.784;4.630;2023-12-07T06:30:49;4.60;99.90
26655;DHT22;14278;50.784;4.630;2023-12-07T06:38:51;4.90;99.90
26655;DHT22;14278;50.784;4.630;2023-12-07T06:41:20;4.80;99.90
26655;DHT22;14278;50.784;4.630;2023-12-07T06:43:46;4.70;99.90
26655;DHT22;14278;50.784;4.630;2023-12-07T06:46:12;5.10;99.90
26655;DHT22;14278;50.784;4.630;2023-12-07T06:53:49;4.00;99.90
26655;DHT22;14278;50.784;4.630;2023-12-07T06:56:15;3.90;99.90
26655;DHT22;14278;50.784;4.630;2023-12-07T06:58:41;3.80;99.90
26655;DHT22;14278;50.784;4.630;2023-12-07T07:01:06;3.70;99.90
26655;DHT22;14278;50.784;4.630;2023-12-07T07:03:32;3.70;99.90
26655;DHT22;14278;50.784;4.630;2023-12-07T07:05:58;3.90;99.90
26655;DHT22;14278;50.784;4.630;2023-12-07T07:08:25;3.70;99.90
26655;DHT22;14278;50.784;4.630;2023-12-07T07:10:50;3.90;99.90
26655;DHT22;14278;50.784;4.630;2023-12-07T07:13:16;4.00;99.90
26655;DHT22;14278;50.784;4.630;2023-12-07T07:15:43;4.00;99.90
26655;DHT22;14278;50.784;4.630;2023-12-07T07:18:09;4.20;99.90
26655;DHT22;14278;50.784;4.630;2023-12-07T07:20:35;3.90;99.90
26655;DHT22;14278;50.784;4.630;2023-12-07T07:23:00;3.70;99.90
26655;DHT22;14278;50.784;4.630;2023-12-07T07:28:02;4.40;99.90
26655;DHT22;14278;50.784;4.630;2023-12-07T07:30:28;4.30;99.90
26655;DHT22;14278;50.784;4.630;2023-12-07T07:32:56;4.00;99.90
26655;DHT22;14278;50.784;4.630;2023-12-07T07:35:21;4.20;99.90
26655;DHT22;14278;50.784;4.630;2023-12-07T07:37:47;4.10;99.90
26655;DHT22;14278;50.784;4.630;2023-12-07T07:42:48;4.10;99.90
26655;DHT22;14278;50.784;4.630;2023-12-07T07:45:14;4.30;99.90
26655;DHT22;14278;50.784;4.630;2023-12-07T07:47:40;4.10;99.90
26655;DHT22;14278;50.784;4.630;2023-12-07T07:50:06;4.10;99.90
26655;DHT22;14278;50.784;4.630;2023-12-07T07:57:39;4.50;99.90
26655;DHT22;14278;50.784;4.630;2023-12-07T08:02:41;4.60;99.90
26655;DHT22;14278;50.784;4.630;2023-12-07T08:05:06;4.70;99.90
26655;DHT22;14278;50.784;4.630;2023-12-07T08:10:08;4.50;99.90
26655;DHT22;14278;50.784;4.630;2023-12-07T08:12:34;4.60;99.90
26655;DHT22;14278;50.784;4.630;2023-12-07T08:15:00;4.80;99.90
26655;DHT22;14278;50.784;4.630;2023-12-07T08:17:26;5.20;99.90
26655;DHT22;14278;50.784;4.630;2023-12-07T08:19:52;5.60;99.90
26655;DHT22;14278;50.784;4.630;2023-12-07T08:24:46;6.10;99.90
26655;DHT22;14278;50.784;4.630;2023-12-07T08:27:13;6.20;99.90
26655;DHT22;14278;50.784;4.630;2023-12-07T08:29:38;6.50;99.90
26655;DHT22;14278;50.784;4.630;2023-12-07T08:32:04;7.30;99.90
26655;DHT22;14278;50.784;4.630;2023-12-07T08:34:30;8.00;99.90
26655;DHT22;14278;50.784;4.630;2023-12-07T08:36:56;9.40;99.90
26655;DHT22;14278;50.784;4.630;2023-12-07T08:49:33;10.00;99.90
26655;DHT22;14278;50.784;4.630;2023-12-07T08:51:59;8.70;99.90
26655;DHT22;14278;50.784;4.630;2023-12-07T08:54:24;8.90;99.90
26655;DHT22;14278;50.784;4.630;2023-12-07T08:56:51;8.90;99.90
26655;DHT22;14278;50.784;4.630;2023-12-07T09:01:52;9.10;99.90
26655;DHT22;14278;50.784;4.630;2023-12-07T09:04:17;8.90;99.90
26655;DHT22;14278;50.784;4.630;2023-12-07T09:09:19;8.50;99.90
26655;DHT22;14278;50.784;4.630;2023-12-07T09:11:45;7.60;99.90
26655;DHT22;14278;50.784;4.630;2023-12-07T09:14:11;7.70;99.90
26655;DHT22;14278;50.784;4.630;2023-12-07T09:16:45;7.80;99.90
26655;DHT22;14278;50.784;4.630;2023-12-07T09:19:14;8.20;99.90
26655;DHT22;14278;50.784;4.630;2023-12-07T09:21:40;8.30;99.90
26655;DHT22;14278;50.784;4.630;2023-12-07T09:24:06;8.20;99.90
26655;DHT22;14278;50.784;4.630;2023-12-07T09:26:32;8.20;99.90
26655;DHT22;14278;50.784;4.630;2023-12-07T09:34:09;8.30;99.90
26655;DHT22;14278;50.784;4.630;2023-12-07T09:36:35;8.30;99.90
26655;DHT22;14278;50.784;4.630;2023-12-07T09:39:00;8.20;99.90
26655;DHT22;14278;50.784;4.630;2023-12-07T09:41:27;8.20;99.90
26655;DHT22;14278;50.784;4.630;2023-12-07T09:43:54;7.80;99.90
26655;DHT22;14278;50.784;4.630;2023-12-07T09:46:20;7.40;99.90
26655;DHT22;14278;50.784;4.630;2023-12-07T09:51:22;7.20;99.90
26655;DHT22;14278;50.784;4.630;2023-12-07T09:53:52;7.00;99.90
26655;DHT22;14278;50.784;4.630;2023-12-07T09:58:53;6.80;99.90
26655;DHT22;14278;50.784;4.630;2023-12-07T10:01:19;7.10;99.90
26655;DHT22;14278;50.784;4.630;2023-12-07T10:03:45;7.40;99.90
26655;DHT22;14278;50.784;4.630;2023-12-07T10:06:12;7.50;99.90
26655;DHT22;14278;50.784;4.630;2023-12-07T10:08:38;7.60;99.90
26655;DHT22;14278;50.784;4.630;2023-12-07T10:11:04;7.90;99.90
26655;DHT22;14278;50.784;4.630;2023-12-07T10:18:36;8.10;99.90
26655;DHT22;14278;50.784;4.630;2023-12-07T10:23:38;7.50;99.90
26655;DHT22;14278;50.784;4.630;2023-12-07T10:26:08;7.60;99.90
26655;DHT22;14278;50.784;4.630;2023-12-07T10:28:36;7.50;99.90
26655;DHT22;14278;50.784;4.630;2023-12-07T10:36:13;7.40;99.90
26655;DHT22;14278;50.784;4.630;2023-12-07T10:41:09;7.70;99.90
26655;DHT22;14278;50.784;4.630;2023-12-07T10:43:42;7.70;99.90
26655;DHT22;14278;50.784;4.630;2023-12-07T10:46:09;7.60;99.90
26655;DHT22;14278;50.784;4.630;2023-12-07T10:48:36;7.80;99.90
26655;DHT22;14278;50.784;4.630;2023-12-07T10:51:06;8.10;99.90
26655;DHT22;14278;50.784;4.630;2023-12-07T10:53:41;7.90;99.90
26655;DHT22;14278;50.784;4.630;2023-12-07T10:56:16;7.60;99.90
26655;DHT22;14278;50.784;4.630;2023-12-07T10:58:42;7.60;99.90
26655;DHT22;14278;50.784;4.630;2023-12-07T11:01:10;7.50;99.90
26655;DHT22;14278;50.784;4.630;2023-12-07T11:03:38;7.50;99.90
26655;DHT22;14278;50.784;4.630;2023-12-07T11:08:44;7.60;99.90
26655;DHT22;14278;50.784;4.630;2023-12-07T11:11:28;7.70;99.90
26655;DHT22;14278;50.784;4.630;2023-12-07T11:14:06;7.50;99.90
26655;DHT22;14278;50.784;4.630;2023-12-07T11:16:36;7.20;99.90
26655;DHT22;14278;50.784;4.630;2023-12-07T11:21:36;7.40;99.90
26655;DHT22;14278;50.784;4.630;2023-12-07T11:24:03;7.80;99.90
26655;DHT22;14278;50.784;4.630;2023-12-07T11:26:29;8.20;99.90
26655;DHT22;14278;50.784;4.630;2023-12-07T11:28:55;8.50;99.90
26655;DHT22;14278;50.784;4.630;2023-12-07T11:34:06;9.00;99.90
26655;DHT22;14278;50.784;4.630;2023-12-07T11:36:33;8.90;99.90
26655;DHT22;14278;50.784;4.630;2023-12-07T11:39:19;8.80;99.90
26655;DHT22;14278;50.784;4.630;2023-12-07T11:41:45;8.70;99.90
26655;DHT22;14278;50.784;4.630;2023-12-07T11:44:11;8.40;99.90
26655;DHT22;14278;50.784;4.630;2023-12-07T11:46:38;8.40;99.90
26655;DHT22;14278;50.784;4.630;2023-12-07T11:49:03;8.30;99.90
26655;DHT22;14278;50.784;4.630;2023-12-07T11:51:30;8.30;99.90
26655;DHT22;14278;50.784;4.630;2023-12-07T11:53:56;8.60;99.90
26655;DHT22;14278;50.784;4.630;2023-12-07T11:56:22;8.40;99.90
26655;DHT22;14278;50.784;4.630;2023-12-07T11:58:48;8.30;99.90
26655;DHT22;14278;50.784;4.630;2023-12-07T12:01:16;8.60;99.90
26655;DHT22;14278;50.784;4.630;2023-12-07T12:03:43;8.30;99.90
26655;DHT22;14278;50.784;4.630;2023-12-07T12:08:44;8.20;99.90
26655;DHT22;14278;50.784;4.630;2023-12-07T12:13:45;8.20;99.90
26655;DHT22;14278;50.784;4.630;2023-12-07T12:16:11;8.00;99.90
26655;DHT22;14278;50.784;4.630;2023-12-07T12:21:13;7.30;99.90
26655;DHT22;14278;50.784;4.630;2023-12-07T12:23:38;7.40;99.90
26655;DHT22;14278;50.784;4.630;2023-12-07T12:26:06;7.50;99.90
26655;DHT22;14278;50.784;4.630;2023-12-07T12:28:32;7.70;99.90
26655;DHT22;14278;50.784;4.630;2023-12-07T12:33:37;8.00;99.90
26655;DHT22;14278;50.784;4.630;2023-12-07T12:38:39;7.80;99.90
26655;DHT22;14278;50.784;4.630;2023-12-07T12:41:05;7.70;99.90
26655;DHT22;14278;50.784;4.630;2023-12-07T12:43:31;7.80;99.90
26655;DHT22;14278;50.784;4.630;2023-12-07T12:45:58;7.60;99.90
26655;DHT22;14278;50.784;4.630;2023-12-07T12:48:23;7.60;99.90
26655;DHT22;14278;50.784;4.630;2023-12-07T12:50:49;7.30;99.90
26655;DHT22;14278;50.784;4.630;2023-12-07T12:55:50;7.10;99.90
26655;DHT22;14278;50.784;4.630;2023-12-07T12:58:16;7.50;99.90
26655;DHT22;14278;50.784;4.630;2023-12-07T13:00:42;7.60;99.90
26655;DHT22;14278;50.784;4.630;2023-12-07T13:05:45;7.70;99.90
26655;DHT22;14278;50.784;4.630;2023-12-07T13:08:13;7.60;99.90
26655;DHT22;14278;50.784;4.630;2023-12-07T13:10:38;7.80;99.90
26655;DHT22;14278;50.784;4.630;2023-12-07T13:13:04;7.60;99.90
26655;DHT22;14278;50.784;4.630;2023-12-07T13:15:32;7.40;99.90
26655;DHT22;14278;50.784;4.630;2023-12-07T13:17:58;7.40;99.90
26655;DHT22;14278;50.784;4.630;2023-12-07T13:20:23;7.50;99.90
26655;DHT22;14278;50.784;4.630;2023-12-07T13:22:49;7.50;99.90
26655;DHT22;14278;50.784;4.630;2023-12-07T13:25:15;7.70;99.90
26655;DHT22;14278;50.784;4.630;2023-12-07T13:27:41;7.70;99.90
26655;DHT22;14278;50.784;4.630;2023-12-07T13:30:09;7.50;99.90
26655;DHT22;14278;50.784;4.630;2023-12-07T13:32:35;7.60;99.90
26655;DHT22;14278;50.784;4.630;2023-12-07T13:35:03;7.70;99.90
26655;DHT22;14278;50.784;4.630;2023-12-07T13:37:29;7.60;99.90
26655;DHT22;14278;50.784;4.630;2023-12-07T13:39:54;7.50;99.90
26655;DHT22;14278;50.784;4.630;2023-12-07T13:42:26;7.40;99.90
26655;DHT22;14278;50.784;4.630;2023-12-07T13:44:55;7.50;99.90
26655;DHT22;14278;50.784;4.630;2023-12-07T13:47:28;7.70;99.90
26655;DHT22;14278;50.784;4.630;2023-12-07T13:50:02;7.50;99.90
26655;DHT22;14278;50.784;4.630;2023-12-07T13:52:29;7.60;99.90
26655;DHT22;14278;50.784;4.630;2023-12-07T13:54:55;7.70;99.90
26655;DHT22;14278;50.784;4.630;2023-12-07T13:57:22;7.60;99.90
26655;DHT22;14278;50.784;4.630;2023-12-07T13:59:50;7.40;99.90
26655;DHT22;14278;50.784;4.630;2023-12-07T14:02:16;7.30;99.90
26655;DHT22;14278;50.784;4.630;2023-12-07T14:04:42;7.30;99.90
26655;DHT22;14278;50.784;4.630;2023-12-07T14:07:11;7.20;99.90
26655;DHT22;14278;50.784;4.630;2023-12-07T14:09:41;7.20;99.90
26655;DHT22;14278;50.784;4.630;2023-12-07T14:12:08;7.30;99.90
26655;DHT22;14278;50.784;4.630;2023-12-07T14:14:36;7.40;99.90
26655;DHT22;14278;50.784;4.630;2023-12-07T14:17:02;7.20;99.90
26655;DHT22;14278;50.784;4.630;2023-12-07T14:19:28;7.20;99.90
26655;DHT22;14278;50.784;4.630;2023-12-07T14:21:54;7.20;99.90
26655;DHT22;14278;50.784;4.630;2023-12-07T14:24:22;7.20;99.90
26655;DHT22;14278;50.784;4.630;2023-12-07T14:26:50;7.30;99.90
26655;DHT22;14278;50.784;4.630;2023-12-07T14:29:17;7.20;99.90
26655;DHT22;14278;50.784;4.630;2023-12-07T14:31:47;6.90;99.90
26655;DHT22;14278;50.784;4.630;2023-12-07T14:34:13;6.80;99.90
26655;DHT22;14278;50.784;4.630;2023-12-07T14:36:40;6.50;99.90
26655;DHT22;14278;50.784;4.630;2023-12-07T14:39:07;6.60;99.90
26655;DHT22;14278;50.784;4.630;2023-12-07T14:41:33;6.70;99.90
26655;DHT22;14278;50.784;4.630;2023-12-07T14:43:59;6.70;99.90
26655;DHT22;14278;50.784;4.630;2023-12-07T14:46:25;6.80;99.90
26655;DHT22;14278;50.784;4.630;2023-12-07T14:48:51;6.70;99.90
26655;DHT22;14278;50.784;4.630;2023-12-07T14:51:20;6.50;99.90
26655;DHT22;14278;50.784;4.630;2023-12-07T14:53:47;6.40;99.90
26655;DHT22;14278;50.784;4.630;2023-12-07T14:56:12;6.30;99.90
26655;DHT22;14278;50.784;4.630;2023-12-07T14:58:38;6.30;99.90
26655;DHT22;14278;50.784;4.630;2023-12-07T15:01:06;6.40;99.90
26655;DHT22;14278;50.784;4.630;2023-12-07T15:03:32;6.40;99.90
26655;DHT22;14278;50.784;4.630;2023-12-07T15:05:57;6.50;99.90
26655;DHT22;14278;50.784;4.630;2023-12-07T15:08:23;6.20;99.90
26655;DHT22;14278;50.784;4.630;2023-12-07T15:10:49;6.10;99.90
26655;DHT22;14278;50.784;4.630;2023-12-07T15:13:18;6.10;99.90
26655;DHT22;14278;50.784;4.630;2023-12-07T15:15:44;6.40;99.90
26655;DHT22;14278;50.784;4.630;2023-12-07T15:18:10;6.30;99.90
26655;DHT22;14278;50.784;4.630;2023-12-07T15:20:36;6.20;99.90
26655;DHT22;14278;50.784;4.630;2023-12-07T15:23:02;6.30;99.90
26655;DHT22;14278;50.784;4.630;2023-12-07T15:25:28;6.40;99.90
26655;DHT22;14278;50.784;4.630;2023-12-07T15:27:55;6.40;99.90
26655;DHT22;14278;50.784;4.630;2023-12-07T15:30:20;6.50;99.90
26655;DHT22;14278;50.784;4.630;2023-12-07T15:32:49;6.40;99.90
26655;DHT22;14278;50.784;4.630;2023-12-07T15:35:16;6.60;99.90
26655;DHT22;14278;50.784;4.630;2023-12-07T15:37:42;6.40;99.90
26655;DHT22;14278;50.784;4.630;2023-12-07T15:40:08;6.30;99.90
26655;DHT22;14278;50.784;4.630;2023-12-07T15:42:37;6.10;99.90
26655;DHT22;14278;50.784;4.630;2023-12-07T15:45:10;5.90;99.90
26655;DHT22;14278;50.784;4.630;2023-12-07T15:47:35;6.00;99.90
26655;DHT22;14278;50.784;4.630;2023-12-07T15:50:01;5.90;99.90
26655;DHT22;14278;50.784;4.630;2023-12-07T15:52:26;6.10;99.90
26655;DHT22;14278;50.784;4.630;2023-12-07T15:54:52;5.80;99.90
26655;DHT22;14278;50.784;4.630;2023-12-07T15:57:18;5.70;99.90
26655;DHT22;14278;50.784;4.630;2023-12-07T15:59:45;5.70;99.90
26655;DHT22;14278;50.784;4.630;2023-12-07T16:02:11;5.50;99.90
26655;DHT22;14278;50.784;4.630;2023-12-07T16:04:40;5.50;99.90
26655;DHT22;14278;50.784;4.630;2023-12-07T16:07:06;5.50;99.90
26655;DHT22;14278;50.784;4.630;2023-12-07T16:09:32;5.40;99.90
26655;DHT22;14278;50.784;4.630;2023-12-07T16:11:59;5.30;99.90
26655;DHT22;14278;50.784;4.630;2023-12-07T16:14:25;5.30;99.90
26655;DHT22;14278;50.784;4.630;2023-12-07T16:16:50;5.20;99.90
26655;DHT22;14278;50.784;4.630;2023-12-07T16:19:16;5.20;99.90
26655;DHT22;14278;50.784;4.630;2023-12-07T16:21:43;5.20;99.90
26655;DHT22;14278;50.784;4.630;2023-12-07T16:24:10;5.30;99.90
26655;DHT22;14278;50.784;4.630;2023-12-07T16:26:39;5.30;99.90
26655;DHT22;14278;50.784;4.630;2023-12-07T16:29:05;5.20;99.90
26655;DHT22;14278;50.784;4.630;2023-12-07T16:31:31;5.10;99.90
26655;DHT22;14278;50.784;4.630;2023-12-07T16:33:57;5.10;99.90
26655;DHT22;14278;50.784;4.630;2023-12-07T16:36:23;5.40;99.90
26655;DHT22;14278;50.784;4.630;2023-12-07T16:38:50;5.30;99.90
26655;DHT22;14278;50.784;4.630;2023-12-07T16:41:16;5.20;99.90
26655;DHT22;14278;50.784;4.630;2023-12-07T16:43:42;5.30;99.90
26655;DHT22;14278;50.784;4.630;2023-12-07T16:46:08;5.00;99.90
26655;DHT22;14278;50.784;4.630;2023-12-07T16:48:34;5.10;99.90
26655;DHT22;14278;50.784;4.630;2023-12-07T16:51:00;5.00;99.90
26655;DHT22;14278;50.784;4.630;2023-12-07T16:53:26;4.90;99.90
26655;DHT22;14278;50.784;4.630;2023-12-07T16:55:53;5.10;99.90
26655;DHT22;14278;50.784;4.630;2023-12-07T16:58:19;5.20;99.90
26655;DHT22;14278;50.784;4.630;2023-12-07T17:00:46;5.50;99.90
26655;DHT22;14278;50.784;4.630;2023-12-07T17:03:11;6.00;99.90
26655;DHT22;14278;50.784;4.630;2023-12-07T17:05:38;6.10;99.90
26655;DHT22;14278;50.784;4.630;2023-12-07T17:08:03;5.50;99.90
26655;DHT22;14278;50.784;4.630;2023-12-07T17:10:29;5.70;99.90
26655;DHT22;14278;50.784;4.630;2023-12-07T17:12:55;5.70;99.90
26655;DHT22;14278;50.784;4.630;2023-12-07T17:15:21;6.00;99.90
26655;DHT22;14278;50.784;4.630;2023-12-07T17:17:46;6.20;99.90
26655;DHT22;14278;50.784;4.630;2023-12-07T17:20:12;6.00;99.90
26655;DHT22;14278;50.784;4.630;2023-12-07T17:22:38;5.90;99.90
26655;DHT22;14278;50.784;4.630;2023-12-07T17:25:07;5.70;99.90
26655;DHT22;14278;50.784;4.630;2023-12-07T17:27:33;5.90;99.90
26655;DHT22;14278;50.784;4.630;2023-12-07T17:29:59;5.90;99.90
26655;DHT22;14278;50.784;4.630;2023-12-07T17:32:25;6.10;99.90
26655;DHT22;14278;50.784;4.630;2023-12-07T17:34:51;6.30;99.90
26655;DHT22;14278;50.784;4.630;2023-12-07T17:37:18;6.00;99.90
26655;DHT22;14278;50.784;4.630;2023-12-07T17:39:45;5.80;99.90
26655;DHT22;14278;50.784;4.630;2023-12-07T17:42:11;5.40;99.90
26655;DHT22;14278;50.784;4.630;2023-12-07T17:44:37;5.60;99.90
26655;DHT22;14278;50.784;4.630;2023-12-07T17:47:02;5.90;99.90
26655;DHT22;14278;50.784;4.630;2023-12-07T17:49:28;5.80;99.90
26655;DHT22;14278;50.784;4.630;2023-12-07T17:51:55;5.90;99.90
26655;DHT22;14278;50.784;4.630;2023-12-07T17:54:21;5.90;99.90
26655;DHT22;14278;50.784;4.630;2023-12-07T17:56:50;6.00;99.90
26655;DHT22;14278;50.784;4.630;2023-12-07T17:59:15;5.80;99.90
26655;DHT22;14278;50.784;4.630;2023-12-07T18:01:42;5.90;99.90
26655;DHT22;14278;50.784;4.630;2023-12-07T18:04:11;5.80;99.90
26655;DHT22;14278;50.784;4.630;2023-12-07T18:06:37;5.90;99.90
26655;DHT22;14278;50.784;4.630;2023-12-07T18:09:03;6.20;99.90
26655;DHT22;14278;50.784;4.630;2023-12-07T18:16:36;6.00;99.90
26655;DHT22;14278;50.784;4.630;2023-12-07T18:19:02;5.90;99.90
26655;DHT22;14278;50.784;4.630;2023-12-07T18:21:29;6.00;99.90
26655;DHT22;14278;50.784;4.630;2023-12-07T18:23:54;6.00;99.90
26655;DHT22;14278;50.784;4.630;2023-12-07T18:26:20;6.00;99.90
26655;DHT22;14278;50.784;4.630;2023-12-07T18:28:46;6.10;99.90
26655;DHT22;14278;50.784;4.630;2023-12-07T18:31:14;6.00;99.90
26655;DHT22;14278;50.784;4.630;2023-12-07T18:33:41;5.90;99.90
26655;DHT22;14278;50.784;4.630;2023-12-07T18:36:08;6.00;99.90
26655;DHT22;14278;50.784;4.630;2023-12-07T18:38:33;6.00;99.90
26655;DHT22;14278;50.784;4.630;2023-12-07T18:40:59;5.90;99.90
26655;DHT22;14278;50.784;4.630;2023-12-07T18:43:25;5.90;99.90
26655;DHT22;14278;50.784;4.630;2023-12-07T18:45:51;5.80;99.90
26655;DHT22;14278;50.784;4.630;2023-12-07T18:48:20;5.80;99.90
26655;DHT22;14278;50.784;4.630;2023-12-07T18:50:49;6.00;99.90
26655;DHT22;14278;50.784;4.630;2023-12-07T18:53:14;5.70;99.90
26655;DHT22;14278;50.784;4.630;2023-12-07T18:55:40;5.70;99.90
26655;DHT22;14278;50.784;4.630;2023-12-07T18:58:06;5.60;99.90
26655;DHT22;14278;50.784;4.630;2023-12-07T19:00:32;5.70;99.90
26655;DHT22;14278;50.784;4.630;2023-12-07T19:02:59;5.60;99.90